NCAR-RAP Real-Time Weather Data

Output produced by METARs form (06 May 2021  16:32 UTC)
found at http://weather.rap.ucar.edu/surface/
 
KCOU 061554Z 31013KT 10SM FEW100 FEW120 17/07 A3013 RMK AO2 SLP200 T01720072
KCOU 061454Z 32012G20KT 10SM CLR 18/08 A3012 RMK AO2 SLP195 T01830083 51007
KCOU 061354Z 32012KT 10SM CLR 17/08 A3011 RMK AO2 SLP193 T01670083
KCOU 061254Z 31006KT 10SM CLR 14/08 A3011 RMK AO2 SLP193 T01440078
KCOU 061154Z 22004KT 10SM BKN065 OVC080 12/07 A3010 RMK AO2 SLP189 60002 70002 T01220072 10161 20117 55001
KCOU 061054Z AUTO 24006KT 10SM BKN080 OVC090 13/06 A3010 RMK AO2 SLP188 T01330061
KCOU 060954Z AUTO 20005KT 10SM CLR 12/07 A3009 RMK AO2 SLP187 T01220067
KCOU 060854Z AUTO 18006KT 10SM BKN100 13/07 A3010 RMK AO2 SLP189 60002 T01280072 58010
KCOU 060754Z AUTO 20006KT 10SM SCT065 OVC090 14/07 A3011 RMK AO2 PK WND 28026/0719 RAB13E51 SLP192 P0002 T01390072
KCOU 060654Z AUTO 23006KT 10SM OVC085 13/08 A3013 RMK AO2 SLP200 T01330078
KCOU 060554Z AUTO 19006KT 10SM BKN090 OVC100 13/08 A3013 RMK AO2 SLP201 T01330083 10194 20133 402170056 53000
KCOU 060454Z AUTO 15004KT 10SM BKN095 16/05 A3012 RMK AO2 SLP197 T01560050
KCOU 060354Z AUTO 16003KT 10SM OVC100 15/07 A3013 RMK AO2 SLP201 T01500072
KCOU 060254Z AUTO 12003KT 10SM CLR 16/07 A3013 RMK AO2 SLP200 T01560072 53003
KCOU 060154Z 00000KT 10SM FEW120 17/07 A3012 RMK AO2 SLP197 T01670072